createdAt,value
2023-05-17T00:02:33.568Z,75.70
2023-05-17T00:07:35.934Z,75.80
2023-05-17T00:12:38.327Z,75.60
2023-05-17T00:17:40.726Z,75.30
2023-05-17T00:22:45.495Z,75.50
2023-05-17T00:27:47.747Z,74.90
2023-05-17T00:32:50.098Z,74.90
2023-05-17T00:37:53.966Z,75.00
2023-05-17T00:42:56.395Z,75.20
2023-05-17T00:47:58.693Z,75.40
2023-05-17T00:53:01.531Z,74.60
2023-05-17T00:58:04.073Z,74.80
2023-05-17T01:03:06.786Z,74.80
2023-05-17T01:08:09.126Z,75.10
2023-05-17T01:13:20.071Z,75.40
2023-05-17T01:18:31.257Z,75.50
2023-05-17T01:28:55.072Z,75.60
2023-05-17T01:33:58.902Z,74.60
2023-05-17T01:39:03.917Z,74.30
2023-05-17T01:54:46.257Z,72.90
2023-05-17T01:59:50.172Z,74.20
2023-05-17T02:04:52.579Z,73.50
2023-05-17T02:09:54.965Z,73.10
2023-05-17T02:14:57.245Z,73.20
2023-05-17T02:19:59.516Z,73.00
2023-05-17T02:25:02.402Z,72.70
2023-05-17T02:30:09.126Z,73.10
2023-05-17T02:35:11.544Z,73.20
2023-05-17T02:40:14.271Z,73.70
2023-05-17T02:45:16.762Z,72.80
2023-05-17T02:50:19.119Z,71.20
2023-05-17T02:55:21.711Z,71.40
2023-05-17T03:00:24.746Z,71.90
2023-05-17T03:05:28.055Z,72.00
2023-05-17T03:10:30.575Z,72.30
2023-05-17T03:15:33.390Z,71.10
2023-05-17T03:20:35.947Z,72.80
2023-05-17T03:25:38.305Z,71.90
2023-05-17T03:30:41.092Z,72.30
2023-05-17T03:35:46.524Z,72.60
2023-05-17T03:40:49.285Z,71.80
2023-05-17T03:45:52.572Z,71.20
2023-05-17T03:50:55.037Z,71.20
2023-05-17T03:55:57.414Z,70.90
2023-05-17T04:00:59.873Z,70.20
2023-05-17T04:06:07.057Z,70.10
2023-05-17T04:11:12.882Z,70.20
2023-05-17T04:16:15.332Z,70.40
2023-05-17T04:21:18.068Z,71.20
2023-05-17T04:26:21.055Z,70.70
2023-05-17T04:31:24.565Z,70.40
2023-05-17T04:36:28.513Z,70.80
2023-05-17T04:41:33.308Z,70.00
2023-05-17T04:46:37.358Z,70.10
2023-05-17T04:51:40.054Z,71.00
2023-05-17T04:56:43.681Z,70.70
2023-05-17T05:01:51.338Z,70.60
2023-05-17T05:14:27.463Z,70.10
2023-05-17T05:19:30.000Z,70.50
2023-05-17T05:24:33.633Z,70.30
2023-05-17T05:29:36.049Z,69.80
2023-05-17T05:34:39.280Z,70.00
2023-05-17T05:39:41.614Z,69.90
2023-05-17T05:44:44.628Z,70.10
2023-05-17T05:49:47.003Z,70.10
2023-05-17T05:54:49.545Z,70.30
2023-05-17T05:59:51.848Z,69.90
2023-05-17T06:04:54.808Z,69.20
2023-05-17T06:09:57.083Z,68.90
2023-05-17T06:14:59.382Z,68.60
2023-05-17T06:20:01.990Z,68.70
2023-05-17T06:25:05.228Z,67.70
2023-05-17T06:30:08.819Z,66.80
2023-05-17T06:35:11.456Z,66.80
2023-05-17T06:41:04.828Z,66.90
2023-05-17T06:46:07.495Z,67.10
2023-05-17T06:51:09.789Z,66.90
2023-05-17T06:56:12.055Z,66.80
2023-05-17T07:01:14.383Z,64.60
2023-05-17T07:06:16.686Z,65.70
2023-05-17T07:11:19.000Z,64.20
2023-05-17T07:16:21.270Z,64.40
2023-05-17T07:21:23.958Z,64.90
2023-05-17T07:26:26.215Z,64.00
2023-05-17T07:31:28.479Z,63.80
2023-05-17T07:36:31.210Z,63.10
2023-05-17T07:41:34.302Z,64.00
2023-05-17T07:46:37.226Z,63.50
2023-05-17T07:51:39.593Z,63.20
2023-05-17T07:56:41.785Z,62.90
2023-05-17T08:01:44.104Z,63.50
2023-05-17T08:06:48.350Z,62.50
2023-05-17T08:11:51.555Z,63.40
2023-05-17T08:16:53.811Z,63.00
2023-05-17T08:21:56.312Z,62.30
2023-05-17T08:26:58.652Z,63.10
2023-05-17T08:32:01.166Z,63.20
2023-05-17T08:37:03.727Z,63.90
2023-05-17T08:42:09.557Z,64.20
2023-05-17T08:47:13.203Z,64.20
2023-05-17T08:52:16.024Z,63.60
2023-05-17T08:57:18.791Z,63.90
2023-05-17T09:02:22.636Z,64.00
2023-05-17T09:07:25.642Z,64.00
2023-05-17T09:12:27.922Z,64.00
2023-05-17T09:17:30.295Z,64.40
2023-05-17T09:22:32.821Z,64.00
2023-05-17T09:27:35.111Z,64.20
2023-05-17T09:32:45.523Z,64.80
2023-05-17T09:37:48.669Z,65.00
2023-05-17T09:42:51.015Z,65.00
2023-05-17T09:47:53.686Z,64.30
2023-05-17T09:52:56.225Z,64.40
2023-05-17T09:58:03.961Z,65.10
2023-05-17T10:03:07.313Z,65.20
2023-05-17T10:08:11.525Z,64.70
2023-05-17T10:13:15.762Z,65.30
2023-05-17T10:18:18.821Z,65.20
2023-05-17T10:23:22.426Z,65.20
2023-05-17T10:28:27.028Z,64.30
2023-05-17T10:33:31.979Z,64.60
2023-05-17T10:38:42.069Z,64.40
2023-05-17T10:43:46.509Z,63.50
2023-05-17T10:48:52.608Z,63.30
2023-05-17T10:59:26.998Z,62.00
2023-05-17T11:09:41.058Z,62.20
2023-05-17T11:25:08.704Z,62.40
2023-05-17T11:35:31.317Z,63.10
2023-05-17T11:40:34.187Z,62.70
2023-05-17T11:45:43.374Z,62.90
2023-05-17T11:50:47.580Z,63.40
2023-05-17T11:55:51.848Z,63.50
2023-05-17T12:00:56.918Z,64.00
2023-05-17T12:11:16.880Z,63.90
2023-05-17T12:16:22.462Z,64.60
2023-05-17T12:21:25.063Z,64.80
2023-05-17T12:26:27.335Z,65.60
2023-05-17T12:31:36.841Z,66.10
2023-05-17T12:36:39.494Z,66.60
2023-05-17T12:41:42.916Z,67.40
2023-05-17T12:46:45.789Z,68.10
2023-05-17T12:51:49.483Z,68.60
2023-05-17T12:56:51.957Z,69.60
2023-05-17T13:01:56.839Z,70.60
2023-05-17T13:07:01.331Z,71.40
2023-05-17T13:12:08.030Z,72.00
2023-05-17T13:17:12.941Z,71.80
2023-05-17T13:22:15.983Z,71.60
2023-05-17T13:27:18.352Z,71.60
2023-05-17T13:32:21.693Z,71.60
2023-05-17T13:37:23.983Z,71.80
2023-05-17T13:42:26.325Z,71.80
2023-05-17T13:47:32.589Z,71.60
2023-05-17T13:52:35.102Z,71.50
2023-05-17T13:57:37.385Z,71.60
2023-05-17T14:02:40.110Z,71.30
2023-05-17T14:07:43.585Z,71.30
2023-05-17T14:12:47.114Z,71.20
2023-05-17T14:17:50.584Z,70.70
2023-05-17T14:22:52.998Z,70.20
2023-05-17T14:27:55.598Z,70.30
2023-05-17T14:32:59.328Z,70.00
2023-05-17T14:38:02.163Z,70.00
2023-05-17T14:43:04.491Z,70.80
2023-05-17T14:48:07.107Z,70.70
2023-05-17T14:53:09.442Z,70.90
2023-05-17T14:58:13.798Z,70.90
2023-05-17T15:03:19.488Z,70.90
2023-05-17T15:08:24.038Z,70.60
2023-05-17T15:13:26.722Z,70.50
2023-05-17T15:18:29.113Z,70.40
2023-05-17T15:23:31.690Z,71.00
2023-05-17T15:28:34.002Z,71.10
2023-05-17T15:33:39.581Z,71.40
2023-05-17T15:38:42.436Z,71.90
2023-05-17T15:43:45.107Z,72.20
2023-05-17T15:48:47.467Z,72.40
2023-05-17T15:53:49.784Z,72.80
2023-05-17T15:58:52.688Z,73.50
2023-05-17T16:03:54.949Z,73.50
2023-05-17T16:08:57.317Z,73.50
2023-05-17T16:13:59.614Z,74.20
2023-05-17T16:19:02.028Z,74.70
2023-05-17T16:24:06.578Z,74.70
2023-05-17T16:29:08.840Z,75.30
2023-05-17T16:34:11.441Z,75.40
2023-05-17T16:39:13.974Z,75.60
2023-05-17T16:44:16.737Z,75.90
2023-05-17T16:49:19.066Z,75.80
2023-05-17T16:54:21.426Z,76.20
2023-05-17T16:59:23.781Z,76.60
2023-05-17T17:04:26.243Z,76.50
2023-05-17T17:09:28.565Z,76.70
2023-05-17T17:14:32.117Z,76.90
2023-05-17T17:19:34.367Z,77.00
2023-05-17T17:24:36.600Z,77.40
2023-05-17T17:29:39.013Z,77.20
2023-05-17T17:34:41.333Z,77.30
2023-05-17T17:39:43.662Z,77.50
2023-05-17T17:44:46.041Z,77.30
2023-05-17T17:49:48.312Z,77.30
2023-05-17T17:54:50.703Z,77.30
2023-05-17T17:59:53.554Z,77.20
2023-05-17T18:04:55.947Z,77.30
2023-05-17T18:09:58.620Z,77.60
2023-05-17T18:15:01.025Z,77.60
2023-05-17T18:20:04.100Z,77.50
2023-05-17T18:25:06.838Z,77.30
2023-05-17T18:30:10.507Z,77.00
2023-05-17T18:35:12.919Z,76.70
2023-05-17T18:40:15.446Z,76.60
2023-05-17T18:45:17.890Z,76.50
2023-05-17T18:50:20.185Z,76.40
2023-05-17T18:55:23.261Z,76.70
2023-05-17T19:00:25.901Z,76.60
2023-05-17T19:05:28.175Z,76.20
2023-05-17T19:10:30.707Z,76.20
2023-05-17T19:15:33.885Z,76.20
2023-05-17T19:20:36.396Z,76.00
2023-05-17T19:25:38.781Z,75.90
2023-05-17T19:30:41.119Z,75.90
2023-05-17T19:35:45.029Z,75.80
2023-05-17T19:40:47.276Z,75.70
2023-05-17T19:45:49.672Z,75.20
2023-05-17T19:50:53.254Z,75.40
2023-05-17T19:55:56.897Z,75.20
2023-05-17T20:00:59.151Z,74.90
2023-05-17T20:06:01.408Z,74.90
2023-05-17T20:11:03.712Z,74.30
2023-05-17T20:16:12.843Z,74.70
2023-05-17T20:21:19.709Z,73.70
2023-05-17T20:26:28.195Z,73.90
2023-05-17T20:31:30.606Z,73.30
2023-05-17T20:36:33.040Z,73.40
2023-05-17T20:41:35.302Z,72.60
2023-05-17T20:46:37.629Z,73.30
2023-05-17T20:51:40.044Z,72.20
2023-05-17T20:56:42.344Z,72.30
2023-05-17T21:01:44.679Z,72.00
2023-05-17T21:06:47.094Z,71.80
2023-05-17T21:11:49.321Z,72.10
2023-05-17T21:16:51.569Z,71.30
2023-05-17T21:21:53.860Z,71.00
2023-05-17T21:26:56.153Z,70.90
2023-05-17T21:31:58.466Z,71.30
2023-05-17T21:37:00.830Z,71.10
2023-05-17T21:42:03.313Z,71.20
2023-05-17T21:47:05.652Z,71.10
2023-05-17T21:52:08.092Z,70.50
2023-05-17T21:57:10.562Z,70.20
2023-05-17T22:02:12.899Z,70.60
2023-05-17T22:07:15.177Z,70.40
2023-05-17T22:12:17.411Z,69.90
2023-05-17T22:17:29.701Z,70.70
2023-05-17T22:22:34.592Z,70.60
2023-05-17T22:27:36.819Z,69.90
2023-05-17T22:32:40.437Z,70.00
2023-05-17T22:37:43.432Z,69.40
2023-05-17T22:42:45.795Z,69.40
2023-05-17T22:47:48.082Z,69.60
2023-05-17T22:52:50.848Z,68.80
2023-05-17T22:57:53.672Z,68.00
2023-05-17T23:02:56.166Z,68.00
2023-05-17T23:08:01.135Z,68.70
2023-05-17T23:13:04.272Z,67.80
2023-05-17T23:18:06.683Z,68.60
2023-05-17T23:23:09.180Z,67.40
2023-05-17T23:28:11.559Z,68.00
2023-05-17T23:33:15.204Z,68.00
2023-05-17T23:38:17.434Z,68.00
2023-05-17T23:43:19.752Z,67.90
2023-05-17T23:48:25.704Z,68.20
2023-05-17T23:53:28.241Z,68.00
2023-05-17T23:58:30.472Z,67.90
